Time;durP1;ratioP1;P1;durP2;ratioP2;P2;SDS_P1;SDS_P2;PMS_P1;PMS_P2;Temp;Humidity;BMP_temperature;BMP_pressure;BME280_temperature;BME280_humidity;BME280_pressure;Samples;Min_cycle;Max_cycle;Signal;HPM_P1;HPM_P2
2021/01/17 00:00:22;;;;;;;58.03;25.85;;;1.30;99.90;;;;;;5093117;28;20080;-69
2021/01/17 00:02:51;;;;;;;53.33;25.75;;;1.30;99.90;;;;;;5093869;28;20024;-67
2021/01/17 00:05:22;;;;;;;55.35;26.90;;;1.30;99.90;;;;;;5093385;28;20052;-68
2021/01/17 00:07:48;;;;;;;47.67;23.95;;;1.40;99.90;;;;;;5093513;28;20024;-69
2021/01/17 00:10:16;;;;;;;53.25;25.80;;;1.40;99.90;;;;;;5093988;28;20024;-69
2021/01/17 00:12:42;;;;;;;57.22;26.27;;;1.40;99.90;;;;;;5093161;28;20332;-68
2021/01/17 00:15:10;;;;;;;60.97;27.85;;;1.40;99.90;;;;;;5092764;28;20127;-68
2021/01/17 00:17:39;;;;;;;57.75;28.63;;;1.40;99.90;;;;;;5093964;28;20016;-68
2021/01/17 00:20:16;;;;;;;56.70;25.98;;;1.40;99.90;;;;;;5093227;28;20020;-68
2021/01/17 00:22:42;;;;;;;53.25;25.63;;;1.40;99.90;;;;;;5093768;28;20066;-68
2021/01/17 00:25:11;;;;;;;49.10;24.90;;;1.40;99.90;;;;;;5093716;28;20395;-68
2021/01/17 00:27:37;;;;;;;54.97;25.80;;;1.40;99.90;;;;;;5092675;28;20480;-68
2021/01/17 00:30:07;;;;;;;58.72;26.75;;;1.40;99.90;;;;;;5093476;28;20035;-68
2021/01/17 00:32:33;;;;;;;62.80;28.50;;;1.40;99.90;;;;;;5093115;28;20111;-67
2021/01/17 00:34:59;;;;;;;58.03;27.77;;;1.40;99.90;;;;;;5092664;28;20127;-67
2021/01/17 00:37:25;;;;;;;61.22;28.27;;;1.40;99.90;;;;;;5092816;28;20112;-68
2021/01/17 00:39:50;;;;;;;56.88;27.20;;;1.40;99.90;;;;;;5093081;28;20016;-67
2021/01/17 00:42:17;;;;;;;50.10;25.48;;;1.50;99.90;;;;;;5092620;28;20123;-67
2021/01/17 00:44:43;;;;;;;61.05;26.27;;;1.50;99.90;;;;;;5093206;28;20056;-68
2021/01/17 00:47:13;;;;;;;58.22;27.10;;;1.40;99.90;;;;;;5093358;28;20035;-68
2021/01/17 00:49:39;;;;;;;59.08;26.75;;;1.40;99.90;;;;;;5081007;28;20044;-67
2021/01/17 00:52:05;;;;;;;64.82;28.65;;;1.40;99.90;;;;;;5090033;28;20019;-67
2021/01/17 00:54:30;;;;;;;65.00;27.33;;;1.50;99.90;;;;;;5092313;28;20068;-68
2021/01/17 00:56:56;;;;;;;62.10;28.02;;;1.50;99.90;;;;;;5092732;28;20055;-68
2021/01/17 00:59:21;;;;;;;62.25;27.92;;;1.40;99.90;;;;;;5092766;28;20026;-68
2021/01/17 01:01:48;;;;;;;62.70;27.63;;;1.50;99.90;;;;;;5092304;28;20028;-69
2021/01/17 01:04:15;;;;;;;55.30;28.45;;;1.50;99.90;;;;;;5091873;28;20099;-67
2021/01/17 01:06:41;;;;;;;56.10;26.27;;;1.50;99.90;;;;;;5093819;28;20050;-67
2021/01/17 01:09:09;;;;;;;58.65;27.83;;;1.50;99.90;;;;;;5093254;28;20104;-67
2021/01/17 01:11:34;;;;;;;59.13;27.27;;;1.50;99.90;;;;;;5092303;28;20111;-68
2021/01/17 01:14:00;;;;;;;59.42;28.02;;;1.50;99.90;;;;;;5092185;28;20434;-67
2021/01/17 01:16:26;;;;;;;59.85;26.98;;;1.50;99.90;;;;;;5091701;28;20020;-68
2021/01/17 01:18:51;;;;;;;71.18;28.83;;;1.50;99.90;;;;;;5092344;28;20059;-67
2021/01/17 01:21:36;;;;;;;54.75;26.08;;;1.50;99.90;;;;;;5092095;28;20099;-69
2021/01/17 01:24:02;;;;;;;63.17;29.27;;;1.50;99.90;;;;;;5091770;28;20382;-67
2021/01/17 01:26:35;;;;;;;58.05;26.65;;;1.50;99.90;;;;;;5091660;28;20042;-68
2021/01/17 01:29:00;;;;;;;58.28;27.52;;;1.50;99.90;;;;;;5092313;28;20027;-68
2021/01/17 01:31:26;;;;;;;60.70;26.40;;;1.50;99.90;;;;;;5077193;28;20024;-67
2021/01/17 01:33:53;;;;;;;60.40;27.40;;;1.50;99.90;;;;;;5071364;28;20114;-67
2021/01/17 01:36:20;;;;;;;63.10;28.60;;;1.60;99.90;;;;;;5071575;28;20029;-68
2021/01/17 01:38:46;;;;;;;65.22;28.00;;;1.60;99.90;;;;;;5071061;28;20117;-67
2021/01/17 01:41:13;;;;;;;58.90;28.60;;;1.60;99.90;;;;;;5071658;28;20229;-68
2021/01/17 01:43:38;;;;;;;54.47;26.15;;;1.50;99.90;;;;;;5071005;28;20115;-68
2021/01/17 01:46:05;;;;;;;55.92;26.60;;;1.60;99.90;;;;;;5071193;28;20108;-67
2021/01/17 01:48:32;;;;;;;53.70;27.50;;;1.60;99.90;;;;;;5071390;28;20036;-67
2021/01/17 01:51:01;;;;;;;53.20;25.17;;;1.60;99.90;;;;;;5070977;28;20473;-67
2021/01/17 01:53:26;;;;;;;56.08;27.25;;;1.60;99.90;;;;;;5071025;28;20028;-68
2021/01/17 01:55:52;;;;;;;61.33;27.65;;;1.60;99.90;;;;;;5071302;28;20106;-68
2021/01/17 01:58:22;;;;;;;56.08;27.17;;;1.60;99.90;;;;;;5070330;28;20028;-67
2021/01/17 02:00:48;;;;;;;58.45;28.60;;;1.60;99.90;;;;;;5071315;28;20450;-68
2021/01/17 02:03:13;;;;;;;56.72;27.35;;;1.60;99.90;;;;;;5070873;28;20039;-68
2021/01/17 02:05:39;;;;;;;58.75;27.13;;;1.60;99.90;;;;;;5070502;28;20100;-67
2021/01/17 02:08:35;;;;;;;57.22;26.73;;;1.70;99.90;;;;;;5071368;28;20017;-67
2021/01/17 02:11:13;;;;;;;55.08;27.42;;;1.70;99.90;;;;;;5071330;28;20505;-67
2021/01/17 02:13:40;;;;;;;51.75;25.55;;;1.60;99.90;;;;;;5070391;28;20024;-67
2021/01/17 02:16:07;;;;;;;55.65;25.65;;;1.70;99.90;;;;;;5071075;28;20068;-67
2021/01/17 02:18:40;;;;;;;57.70;26.20;;;1.70;99.90;;;;;;5070779;28;20033;-69
2021/01/17 02:21:08;;;;;;;54.88;26.10;;;1.70;99.90;;;;;;5070382;28;20028;-69
2021/01/17 02:23:40;;;;;;;52.72;24.48;;;1.70;99.90;;;;;;5070856;28;20423;-67
2021/01/17 02:26:06;;;;;;;53.58;25.42;;;1.70;99.90;;;;;;5071653;28;20071;-67
2021/01/17 02:28:32;;;;;;;54.75;25.27;;;1.70;99.90;;;;;;5072093;28;20184;-67
2021/01/17 02:30:59;;;;;;;53.58;24.90;;;1.70;99.90;;;;;;5072165;28;20040;-68
2021/01/17 02:33:29;;;;;;;52.15;25.50;;;1.70;99.90;;;;;;5071518;28;20028;-67
2021/01/17 02:36:03;;;;;;;52.65;26.58;;;1.80;99.90;;;;;;5071992;28;20032;-67
2021/01/17 02:39:05;;;;;;;51.72;24.35;;;1.80;99.90;;;;;;5071365;28;20155;-69
2021/01/17 02:41:38;;;;;;;49.05;24.42;;;1.80;99.90;;;;;;5070391;28;20169;-68
2021/01/17 02:44:06;;;;;;;54.63;24.85;;;1.70;99.90;;;;;;5070479;28;20490;-68
2021/01/17 02:46:32;;;;;;;51.90;24.65;;;1.70;99.90;;;;;;5070763;28;20483;-68
2021/01/17 02:48:58;;;;;;;50.00;24.30;;;1.80;99.90;;;;;;5070355;28;20052;-69
2021/01/17 02:51:27;;;;;;;62.65;26.60;;;1.80;99.90;;;;;;5070374;28;20067;-69
2021/01/17 02:54:08;;;;;;;55.50;25.42;;;1.80;99.90;;;;;;5070426;28;20461;-67
2021/01/17 02:56:39;;;;;;;46.08;24.05;;;1.80;99.90;;;;;;5070286;28;20074;-69
2021/01/17 02:59:08;;;;;;;49.05;24.23;;;1.80;99.90;;;;;;5070920;28;20077;-69
2021/01/17 03:01:37;;;;;;;50.35;23.80;;;1.80;99.90;;;;;;5069875;28;20023;-68
2021/01/17 03:04:15;;;;;;;52.10;25.45;;;1.90;99.90;;;;;;5070453;28;20044;-68
2021/01/17 03:06:43;;;;;;;45.08;24.25;;;1.90;99.90;;;;;;5070379;28;20023;-68
2021/01/17 03:09:09;;;;;;;47.97;22.95;;;1.90;99.90;;;;;;5070223;28;20061;-66
2021/01/17 03:11:35;;;;;;;46.03;24.70;;;1.90;99.90;;;;;;5070090;28;20025;-67
2021/01/17 03:14:02;;;;;;;48.55;23.85;;;2.00;99.90;;;;;;5070724;28;20501;-67
2021/01/17 03:16:27;;;;;;;52.15;25.33;;;2.00;99.90;;;;;;5069779;28;20032;-69
2021/01/17 03:18:53;;;;;;;54.17;26.23;;;2.00;99.90;;;;;;5070319;28;20028;-68
2021/01/17 03:21:19;;;;;;;48.13;24.50;;;2.00;99.90;;;;;;5070105;28;20021;-68
2021/01/17 03:23:44;;;;;;;52.03;24.95;;;2.10;99.90;;;;;;5070065;28;20025;-68
2021/01/17 03:26:10;;;;;;;46.00;23.75;;;2.10;99.90;;;;;;5070497;28;20548;-68
2021/01/17 03:28:35;;;;;;;50.60;24.30;;;2.10;99.90;;;;;;5069974;28;20032;-68
2021/01/17 03:31:01;;;;;;;44.78;23.40;;;2.10;99.90;;;;;;5069730;28;20108;-67
2021/01/17 03:33:26;;;;;;;43.65;23.67;;;2.20;99.90;;;;;;5069825;28;20533;-68
2021/01/17 03:35:52;;;;;;;52.10;26.10;;;2.10;99.90;;;;;;5070295;28;20068;-67
2021/01/17 03:38:17;;;;;;;47.85;24.52;;;2.10;99.90;;;;;;5069326;28;20433;-68
2021/01/17 03:40:43;;;;;;;48.67;25.40;;;2.20;99.90;;;;;;5070276;28;20472;-68
2021/01/17 03:43:08;;;;;;;46.03;23.90;;;2.10;99.90;;;;;;5069865;28;20116;-67
2021/01/17 03:45:34;;;;;;;50.92;24.48;;;2.10;99.90;;;;;;5069941;28;20090;-68
2021/01/17 03:47:59;;;;;;;49.05;24.70;;;2.20;99.90;;;;;;5071286;28;20017;-68
2021/01/17 03:50:25;;;;;;;50.10;24.73;;;2.20;99.90;;;;;;5073178;28;20131;-68
2021/01/17 03:52:50;;;;;;;46.30;25.13;;;2.20;99.90;;;;;;5073657;28;20020;-68
2021/01/17 03:55:16;;;;;;;47.72;25.88;;;2.20;99.90;;;;;;5073958;28;20047;-68
2021/01/17 03:57:41;;;;;;;51.45;25.95;;;2.30;99.90;;;;;;5074484;28;20020;-67
2021/01/17 04:00:08;;;;;;;49.30;25.52;;;2.30;99.90;;;;;;5074378;28;20024;-67
2021/01/17 04:02:33;;;;;;;52.30;25.23;;;2.30;99.90;;;;;;5073708;28;20071;-67
2021/01/17 04:04:59;;;;;;;49.25;25.52;;;2.30;99.90;;;;;;5073108;28;20082;-67
2021/01/17 04:07:28;;;;;;;51.47;25.67;;;2.30;99.90;;;;;;5073164;28;20107;-67
2021/01/17 04:09:53;;;;;;;52.65;24.02;;;2.30;99.90;;;;;;5073591;28;20051;-67
2021/01/17 04:12:19;;;;;;;54.95;25.73;;;2.40;99.90;;;;;;5072805;28;20059;-67
2021/01/17 04:14:44;;;;;;;51.25;24.73;;;2.40;99.90;;;;;;5073105;28;20039;-67
2021/01/17 04:17:10;;;;;;;51.97;24.40;;;2.40;99.90;;;;;;5073393;28;20017;-67
2021/01/17 04:19:35;;;;;;;48.22;24.67;;;2.40;99.90;;;;;;5072851;28;20042;-67
2021/01/17 04:22:01;;;;;;;51.20;25.00;;;2.40;99.90;;;;;;5073214;28;20155;-67
2021/01/17 04:24:26;;;;;;;53.97;26.17;;;2.40;99.90;;;;;;5073088;28;20027;-67
2021/01/17 04:27:02;;;;;;;50.13;23.23;;;2.50;99.90;;;;;;5072899;28;20020;-67
2021/01/17 04:29:28;;;;;;;49.78;26.05;;;2.50;99.90;;;;;;5072852;28;20103;-67
2021/01/17 04:31:54;;;;;;;50.83;24.27;;;2.50;99.90;;;;;;5073231;28;20028;-67
2021/01/17 04:34:22;;;;;;;56.47;25.05;;;2.60;99.90;;;;;;5071868;28;20048;-67
2021/01/17 04:36:49;;;;;;;49.83;24.95;;;2.60;99.90;;;;;;5072909;28;20033;-67
2021/01/17 04:39:14;;;;;;;53.42;25.60;;;2.70;99.90;;;;;;5072944;28;20098;-68
2021/01/17 04:41:45;;;;;;;54.72;25.13;;;2.60;99.90;;;;;;5072577;28;20052;-68
2021/01/17 04:44:12;;;;;;;63.53;24.50;;;2.70;99.90;;;;;;5073055;28;20099;-68
2021/01/17 04:46:39;;;;;;;48.15;23.67;;;2.70;99.90;;;;;;5072298;28;20445;-69
2021/01/17 04:49:07;;;;;;;54.78;23.58;;;2.70;99.90;;;;;;5072282;28;20032;-68
2021/01/17 04:51:33;;;;;;;48.55;21.98;;;2.80;99.90;;;;;;5072845;28;20434;-68
2021/01/17 04:54:00;;;;;;;46.47;22.35;;;2.80;99.90;;;;;;5072435;28;20033;-68
2021/01/17 04:56:30;;;;;;;50.58;23.52;;;2.80;99.90;;;;;;5071966;28;20103;-68
2021/01/17 04:59:12;;;;;;;48.00;21.58;;;2.80;99.90;;;;;;5072405;28;20079;-68
2021/01/17 05:01:47;;;;;;;49.70;22.15;;;2.80;99.90;;;;;;5071707;28;20056;-68
2021/01/17 05:04:33;;;;;;;48.33;21.25;;;2.80;99.90;;;;;;5072315;28;20089;-68
2021/01/17 05:07:05;;;;;;;47.60;19.88;;;2.80;99.90;;;;;;5072617;28;20104;-68
2021/01/17 05:09:31;;;;;;;51.10;21.35;;;2.80;99.90;;;;;;5071315;28;20029;-68
2021/01/17 05:12:12;;;;;;;39.95;19.83;;;2.80;99.90;;;;;;5072207;28;20037;-68
2021/01/17 05:14:42;;;;;;;;;;;2.80;99.90;;;;;;5071870;28;20040;-68
2021/01/17 05:17:09;;;;;;;38.83;18.02;;;2.80;99.90;;;;;;5071825;28;20272;-68
2021/01/17 05:19:38;;;;;;;49.15;18.40;;;2.70;99.90;;;;;;5071909;28;20033;-68
2021/01/17 05:22:05;;;;;;;47.45;18.02;;;2.80;99.90;;;;;;5071370;28;20070;-68
2021/01/17 05:24:31;;;;;;;54.30;17.15;;;2.80;99.90;;;;;;5071351;28;20407;-68
2021/01/17 05:26:59;;;;;;;49.15;17.83;;;2.90;99.90;;;;;;5071862;28;20021;-68
2021/01/17 05:29:29;;;;;;;49.78;16.77;;;3.00;99.90;;;;;;5071188;28;20108;-68
2021/01/17 05:31:59;;;;;;;49.38;15.00;;;3.10;99.90;;;;;;5071788;28;20031;-68
2021/01/17 05:34:26;;;;;;;46.08;12.98;;;3.20;99.90;;;;;;5071330;28;20083;-68
2021/01/17 05:37:09;;;;;;;44.33;11.63;;;3.30;99.90;;;;;;5071170;28;20507;-67
2021/01/17 05:40:01;;;;;;;32.60;8.20;;;3.40;99.90;;;;;;5071460;28;20033;-68
2021/01/17 05:42:29;;;;;;;33.97;6.85;;;3.40;99.90;;;;;;5071391;28;20542;-68
2021/01/17 05:44:56;;;;;;;29.08;6.72;;;3.50;99.90;;;;;;5071219;28;20116;-68
2021/01/17 05:47:23;;;;;;;38.85;7.45;;;3.50;99.90;;;;;;5071409;28;20044;-67
2021/01/17 05:49:50;;;;;;;27.00;5.32;;;3.60;99.90;;;;;;5071257;28;20020;-68
2021/01/17 05:52:17;;;;;;;31.10;6.22;;;3.70;99.90;;;;;;5071354;28;20375;-68
2021/01/17 05:54:47;;;;;;;24.20;3.63;;;3.60;99.90;;;;;;5071326;28;20480;-68
2021/01/17 05:57:15;;;;;;;32.50;4.85;;;3.60;99.90;;;;;;5070860;28;20028;-68
2021/01/17 05:59:41;;;;;;;30.98;4.97;;;3.60;99.90;;;;;;5071194;28;20032;-68
2021/01/17 06:02:18;;;;;;;31.13;4.60;;;3.60;99.90;;;;;;5071393;28;20094;-68
2021/01/17 06:04:47;;;;;;;29.63;4.80;;;3.50;99.90;;;;;;5070798;28;20027;-68
2021/01/17 06:07:15;;;;;;;33.38;4.75;;;3.60;99.90;;;;;;5070868;28;20017;-69
2021/01/17 06:09:42;;;;;;;31.45;6.65;;;3.50;99.90;;;;;;5071531;28;20033;-68
2021/01/17 06:12:09;;;;;;;25.77;4.30;;;3.50;99.90;;;;;;5070076;28;20032;-68
2021/01/17 06:14:35;;;;;;;26.05;4.85;;;3.50;99.90;;;;;;5070527;28;20041;-68
2021/01/17 06:17:03;;;;;;;28.35;7.05;;;3.50;99.90;;;;;;5071374;28;20024;-67
2021/01/17 06:19:36;;;;;;;41.33;8.02;;;3.50;99.90;;;;;;5070677;28;20461;-67
2021/01/17 06:22:07;;;;;;;34.92;7.97;;;3.50;99.90;;;;;;5072299;28;20042;-67
2021/01/17 06:24:37;;;;;;;34.80;4.60;;;3.60;99.90;;;;;;5071009;28;20044;-67
2021/01/17 06:27:04;;;;;;;36.72;5.93;;;3.60;99.90;;;;;;5070215;28;20082;-67
2021/01/17 06:29:37;;;;;;;32.80;4.10;;;3.60;99.90;;;;;;5070820;28;20039;-67
2021/01/17 06:32:16;;;;;;;31.60;3.95;;;3.70;99.90;;;;;;5070488;28;20484;-67
2021/01/17 06:34:46;;;;;;;27.73;4.95;;;3.70;99.90;;;;;;5070838;28;20053;-67
2021/01/17 06:37:14;;;;;;;37.53;4.40;;;3.80;99.90;;;;;;5071046;28;20397;-67
2021/01/17 06:39:48;;;;;;;26.05;3.60;;;3.80;99.90;;;;;;5070487;28;20032;-67
2021/01/17 06:42:15;;;;;;;24.85;3.88;;;3.80;99.90;;;;;;5070632;28;20099;-66
2021/01/17 06:44:41;;;;;;;34.55;4.75;;;3.80;99.90;;;;;;5071105;28;20120;-67
2021/01/17 06:47:25;;;;;;;18.08;3.83;;;3.90;99.90;;;;;;5070966;28;20020;-68
2021/01/17 06:49:53;;;;;;;31.95;3.95;;;3.80;99.90;;;;;;5071147;28;20024;-68
2021/01/17 06:52:19;;;;;;;20.88;3.10;;;3.80;99.90;;;;;;5070863;28;20111;-68
2021/01/17 06:54:47;;;;;;;26.58;3.90;;;3.80;99.90;;;;;;5070033;28;20055;-68
2021/01/17 06:57:13;;;;;;;43.30;4.50;;;3.80;99.90;;;;;;5070737;28;20387;-66
2021/01/17 06:59:50;;;;;;;21.02;3.60;;;3.80;99.90;;;;;;5070785;28;20062;-67
2021/01/17 07:02:31;;;;;;;38.28;4.50;;;3.80;99.90;;;;;;5084512;28;20127;-68
2021/01/17 07:05:26;;;;;;;20.33;3.47;;;3.90;99.90;;;;;;5085644;28;20400;-66
2021/01/17 07:07:52;;;;;;;17.80;3.47;;;3.90;99.90;;;;;;5083259;28;20028;-66
2021/01/17 07:10:21;;;;;;;37.92;3.90;;;3.90;99.90;;;;;;5085925;28;20043;-68
2021/01/17 07:13:04;;;;;;;31.55;4.63;;;4.00;99.90;;;;;;5087059;28;20025;-68
2021/01/17 07:15:34;;;;;;;31.73;3.92;;;4.00;99.90;;;;;;5086973;28;20036;-68
2021/01/17 07:18:09;;;;;;;21.67;3.28;;;4.00;99.90;;;;;;5087556;28;20020;-68
2021/01/17 07:20:39;;;;;;;28.35;3.38;;;4.00;99.90;;;;;;5081838;28;20040;-68
2021/01/17 07:23:07;;;;;;;33.75;5.07;;;4.00;99.90;;;;;;5086993;28;20069;-68
2021/01/17 07:25:35;;;;;;;36.35;4.53;;;4.00;99.90;;;;;;5092289;28;20471;-68
2021/01/17 07:28:08;;;;;;;32.03;4.63;;;4.00;99.90;;;;;;5090603;28;20061;-68
2021/01/17 07:30:51;;;;;;;26.08;3.75;;;4.00;99.90;;;;;;5083512;28;20115;-68
2021/01/17 07:33:23;;;;;;;34.63;4.40;;;4.00;99.90;;;;;;5090791;28;20032;-68
2021/01/17 07:35:49;;;;;;;27.45;4.32;;;3.90;99.90;;;;;;5091413;28;20040;-68
2021/01/17 07:38:16;;;;;;;38.03;4.85;;;4.00;99.90;;;;;;5089058;28;20467;-68
2021/01/17 07:40:50;;;;;;;27.65;4.97;;;3.90;99.90;;;;;;5088414;28;20020;-68
2021/01/17 07:43:31;;;;;;;36.30;4.95;;;3.90;99.90;;;;;;5092257;28;20439;-68
2021/01/17 07:46:02;;;;;;;46.88;5.80;;;3.90;99.90;;;;;;5092637;28;20047;-68
2021/01/17 07:48:29;;;;;;;31.02;4.80;;;3.90;99.90;;;;;;5090583;28;20110;-69
2021/01/17 07:51:00;;;;;;;32.20;4.55;;;3.80;99.90;;;;;;5090683;28;20063;-67
2021/01/17 07:53:38;;;;;;;25.52;4.65;;;3.80;99.90;;;;;;5085708;28;20092;-67
2021/01/17 07:56:09;;;;;;;31.30;4.20;;;3.90;99.90;;;;;;5089169;28;20136;-67
2021/01/17 07:58:45;;;;;;;44.22;4.85;;;3.90;99.90;;;;;;5090789;28;20112;-67
2021/01/17 08:01:30;;;;;;;27.20;4.63;;;3.80;99.90;;;;;;5091303;28;20034;-67
2021/01/17 08:04:16;;;;;;;28.45;4.93;;;3.80;99.90;;;;;;5091701;28;20022;-68
2021/01/17 08:06:42;;;;;;;40.42;7.57;;;3.70;99.90;;;;;;5078368;28;20254;-68
2021/01/17 08:09:12;;;;;;;30.15;5.00;;;3.70;99.90;;;;;;5090187;28;20107;-67
2021/01/17 08:11:51;;;;;;;44.72;5.22;;;3.70;99.90;;;;;;5082282;28;20368;-68
2021/01/17 08:14:18;;;;;;;29.55;5.03;;;3.70;99.90;;;;;;5090843;28;20032;-68
2021/01/17 08:17:06;;;;;;;45.83;6.38;;;3.70;99.90;;;;;;5079712;28;20135;-68
2021/01/17 08:19:44;;;;;;;36.03;4.25;;;3.70;99.90;;;;;;5085794;28;20904;-67
2021/01/17 08:22:21;;;;;;;38.10;5.05;;;3.80;99.90;;;;;;5092199;28;20027;-67
2021/01/17 08:25:07;;;;;;;36.83;3.92;;;3.90;99.90;;;;;;5078243;28;20016;-67
2021/01/17 08:27:37;;;;;;;36.50;4.80;;;4.00;99.90;;;;;;5073180;28;20540;-67
2021/01/17 08:30:10;;;;;;;;;;;4.00;99.90;;;;;;5073865;28;20111;-67
2021/01/17 08:32:41;;;;;;;30.30;4.63;;;4.10;99.90;;;;;;5073012;28;20367;-67
2021/01/17 08:35:17;;;;;;;33.33;4.82;;;4.20;99.90;;;;;;5071790;28;20044;-66
2021/01/17 08:37:44;;;;;;;17.98;3.58;;;4.20;99.90;;;;;;5073595;28;20174;-67
2021/01/17 08:40:10;;;;;;;22.92;3.40;;;4.30;99.90;;;;;;5080764;28;20024;-67
2021/01/17 08:42:54;;;;;;;15.48;3.65;;;4.40;99.90;;;;;;5083050;28;20860;-66
2021/01/17 08:45:22;;;;;;;18.10;2.97;;;4.50;99.90;;;;;;5081120;28;20469;-66
2021/01/17 08:47:49;;;;;;;18.45;3.00;;;4.50;99.90;;;;;;5072433;28;20055;-66
2021/01/17 08:50:42;;;;;;;21.70;4.25;;;4.60;99.90;;;;;;5081414;28;20012;-66
2021/01/17 08:53:10;;;;;;;26.08;4.13;;;4.60;99.90;;;;;;5083193;28;20039;-66
2021/01/17 08:55:44;;;;;;;27.48;4.20;;;4.60;99.90;;;;;;5090598;28;20035;-66
2021/01/17 08:58:16;;;;;;;25.90;4.10;;;4.60;99.90;;;;;;5073359;28;20387;-66
2021/01/17 09:00:56;;;;;;;32.33;5.45;;;4.70;99.90;;;;;;5091150;28;20031;-66
2021/01/17 09:03:33;;;;;;;26.55;5.25;;;4.70;99.90;;;;;;5090323;28;20024;-66
2021/01/17 09:06:00;;;;;;;22.05;4.65;;;4.70;99.90;;;;;;5079311;28;20032;-66
2021/01/17 09:08:27;;;;;;;38.63;4.78;;;4.70;99.90;;;;;;5071722;28;20077;-66
2021/01/17 09:10:53;;;;;;;37.10;7.43;;;4.70;99.90;;;;;;5073000;28;20064;-67
2021/01/17 09:13:30;;;;;;;19.42;6.00;;;4.70;99.90;;;;;;5072437;28;20056;-68
2021/01/17 09:16:01;;;;;;;31.75;5.50;;;4.70;99.90;;;;;;5072200;28;20037;-65
2021/01/17 09:18:32;;;;;;;39.95;6.40;;;4.70;99.90;;;;;;5072432;28;20376;-68
2021/01/17 09:20:58;;;;;;;34.38;5.55;;;4.70;99.90;;;;;;5072263;28;20440;-68
2021/01/17 09:23:24;;;;;;;28.23;4.30;;;4.80;99.90;;;;;;5071871;28;20040;-69
2021/01/17 09:26:08;;;;;;;33.17;4.82;;;4.90;99.90;;;;;;5072539;28;20020;-68
2021/01/17 09:28:35;;;;;;;34.90;5.53;;;5.00;99.90;;;;;;5064016;28;20487;-68
2021/01/17 09:31:01;;;;;;;36.38;4.90;;;5.10;99.90;;;;;;5064101;28;20130;-67
2021/01/17 09:33:29;;;;;;;31.75;4.93;;;5.10;99.90;;;;;;5079520;28;20032;-67
2021/01/17 09:35:55;;;;;;;34.40;4.60;;;5.20;99.90;;;;;;5089791;28;20518;-67
2021/01/17 09:38:23;;;;;;;33.95;5.80;;;5.20;99.90;;;;;;5084341;28;20045;-66
2021/01/17 09:40:53;;;;;;;38.20;4.30;;;5.30;99.90;;;;;;5067817;28;20879;-67
2021/01/17 09:43:19;;;;;;;33.40;5.20;;;5.30;99.90;;;;;;5068319;28;20028;-66
2021/01/17 09:45:50;;;;;;;26.08;5.95;;;5.40;99.90;;;;;;5069345;28;20060;-66
2021/01/17 09:48:20;;;;;;;34.63;5.43;;;5.50;99.90;;;;;;5077996;28;20028;-65
2021/01/17 09:50:46;;;;;;;31.58;6.03;;;5.50;99.90;;;;;;5079284;28;20056;-65
2021/01/17 09:53:14;;;;;;;34.45;5.00;;;5.60;99.90;;;;;;5076665;28;20037;-66
2021/01/17 09:55:41;;;;;;;37.60;5.00;;;5.60;99.90;;;;;;5068617;28;20067;-66
2021/01/17 09:58:09;;;;;;;37.58;6.43;;;5.80;99.90;;;;;;5069726;28;20028;-65
2021/01/17 10:00:35;;;;;;;35.13;6.68;;;5.90;99.90;;;;;;5077249;28;20044;-65
2021/01/17 10:03:12;;;;;;;27.88;4.97;;;6.10;99.90;;;;;;5075176;28;20028;-66
2021/01/17 10:05:39;;;;;;;30.60;4.28;;;6.10;99.90;;;;;;5072542;28;20032;-66
2021/01/17 10:08:07;;;;;;;30.52;4.63;;;6.20;99.90;;;;;;5078902;28;20465;-66
2021/01/17 10:10:34;;;;;;;40.28;4.03;;;6.20;99.90;;;;;;5069908;28;20412;-66
2021/01/17 10:13:00;;;;;;;33.47;5.20;;;6.20;99.90;;;;;;5067963;28;20040;-66
2021/01/17 10:15:26;;;;;;;40.92;4.53;;;6.20;99.90;;;;;;5067928;28;20040;-66
2021/01/17 10:17:53;;;;;;;28.50;3.60;;;6.30;99.90;;;;;;5073362;28;20032;-65
2021/01/17 10:20:33;;;;;;;33.90;4.30;;;6.40;99.90;;;;;;5069733;28;20306;-67
2021/01/17 10:23:00;;;;;;;27.50;4.57;;;6.40;99.90;;;;;;5073648;28;20024;-65
2021/01/17 10:25:27;;;;;;;34.58;4.70;;;6.50;99.90;;;;;;5069088;28;20029;-67
2021/01/17 10:28:00;;;;;;;27.35;4.57;;;6.60;99.90;;;;;;5062139;28;20032;-66
2021/01/17 10:30:31;;;;;;;28.00;4.60;;;6.60;99.90;;;;;;5066985;28;20105;-66
2021/01/17 10:33:02;;;;;;;20.20;4.63;;;6.60;99.90;;;;;;5072086;28;20028;-66
2021/01/17 10:35:31;;;;;;;36.70;5.03;;;6.70;99.90;;;;;;5069422;28;20079;-66
2021/01/17 10:37:56;;;;;;;22.60;4.00;;;6.70;99.90;;;;;;5070642;28;20086;-66
2021/01/17 10:40:26;;;;;;;19.02;3.22;;;6.80;99.90;;;;;;5068784;28;20490;-66
2021/01/17 10:42:53;;;;;;;25.07;3.47;;;6.80;99.90;;;;;;5065406;28;20073;-67
2021/01/17 10:45:20;;;;;;;35.67;4.85;;;6.90;99.90;;;;;;5068988;28;20279;-67
2021/01/17 10:47:52;;;;;;;30.38;6.72;;;6.70;99.90;;;;;;5074272;28;20024;-66
2021/01/17 10:50:20;;;;;;;26.75;4.28;;;6.70;99.90;;;;;;5068515;28;20047;-66
2021/01/17 10:53:10;;;;;;;16.95;3.13;;;6.70;99.90;;;;;;5073773;28;20024;-66
2021/01/17 10:55:37;;;;;;;15.38;3.67;;;6.70;99.90;;;;;;5074378;28;20182;-67
2021/01/17 10:58:07;;;;;;;17.92;3.67;;;6.70;99.90;;;;;;5068987;28;20048;-67
2021/01/17 11:00:33;;;;;;;24.48;3.22;;;6.70;99.90;;;;;;5069177;28;20032;-67
2021/01/17 11:03:00;;;;;;;20.02;4.05;;;6.80;99.90;;;;;;5068971;28;20476;-67
2021/01/17 11:05:26;;;;;;;19.08;2.42;;;6.70;99.90;;;;;;5067227;28;20459;-66
2021/01/17 11:07:52;;;;;;;20.80;2.75;;;6.80;99.90;;;;;;5061271;28;20035;-66
2021/01/17 11:10:18;;;;;;;21.00;2.35;;;6.70;99.90;;;;;;5068522;28;20032;-66
2021/01/17 11:12:44;;;;;;;13.50;2.75;;;6.80;99.90;;;;;;5068396;28;20037;-66
2021/01/17 11:15:15;;;;;;;11.38;2.28;;;6.80;99.90;;;;;;5069332;28;20131;-66
2021/01/17 11:17:51;;;;;;;7.65;1.55;;;6.90;99.90;;;;;;5066213;28;20479;-65
2021/01/17 11:20:17;;;;;;;15.63;2.00;;;7.00;99.90;;;;;;5087257;28;20032;-66
2021/01/17 11:22:43;;;;;;;12.27;3.47;;;7.10;99.90;;;;;;5087202;28;20020;-65
2021/01/17 11:25:19;;;;;;;11.00;2.53;;;7.10;99.90;;;;;;5079760;28;20032;-65
2021/01/17 11:27:46;;;;;;;13.60;1.88;;;7.10;99.90;;;;;;5080322;28;20020;-66
2021/01/17 11:30:15;;;;;;;9.02;1.92;;;7.00;99.90;;;;;;5085173;28;20111;-66
2021/01/17 11:32:41;;;;;;;12.23;1.85;;;7.00;99.90;;;;;;5086909;28;20384;-65
2021/01/17 11:35:22;;;;;;;12.75;1.63;;;7.00;99.90;;;;;;5071699;28;20036;-65
2021/01/17 11:37:50;;;;;;;8.93;2.17;;;7.10;99.90;;;;;;5079550;28;20033;-66
2021/01/17 11:40:19;;;;;;;12.98;1.83;;;7.10;99.90;;;;;;5074097;28;20107;-66
2021/01/17 11:42:45;;;;;;;15.52;1.95;;;7.10;99.90;;;;;;5076923;28;20099;-66
2021/01/17 11:45:20;;;;;;;14.63;1.70;;;7.10;99.90;;;;;;5078043;28;20739;-67
2021/01/17 11:47:55;;;;;;;8.40;1.95;;;7.10;99.90;;;;;;5068169;28;20033;-65
2021/01/17 11:50:21;;;;;;;16.10;2.03;;;7.10;99.90;;;;;;5072945;28;20107;-67
2021/01/17 11:53:00;;;;;;;9.75;2.13;;;7.00;99.90;;;;;;5072509;28;20345;-66
2021/01/17 11:55:27;;;;;;;9.25;2.15;;;7.00;99.90;;;;;;5070327;28;20044;-66
2021/01/17 11:58:13;;;;;;;12.98;2.20;;;7.10;99.90;;;;;;5069057;28;20409;-65
2021/01/17 12:00:53;;;;;;;14.43;2.17;;;7.10;99.90;;;;;;5069633;28;20111;-65
2021/01/17 12:03:22;;;;;;;15.30;2.28;;;7.30;99.90;;;;;;5069184;28;20507;-67
2021/01/17 12:06:04;;;;;;;18.10;4.55;;;7.30;99.90;;;;;;5073691;28;20028;-67
2021/01/17 12:08:50;;;;;;;15.18;2.13;;;7.40;99.90;;;;;;5073591;28;20356;-66
2021/01/17 12:11:39;;;;;;;18.98;2.00;;;7.50;99.90;;;;;;5077451;28;20104;-66
2021/01/17 12:14:20;;;;;;;17.00;2.35;;;7.50;99.90;;;;;;5073329;28;20021;-70
2021/01/17 12:16:51;;;;;;;14.73;2.30;;;7.50;99.90;;;;;;5071189;28;20507;-65
2021/01/17 12:19:17;;;;;;;10.00;2.08;;;7.50;99.90;;;;;;5080544;28;20533;-66
2021/01/17 12:21:44;;;;;;;20.55;2.70;;;7.40;99.90;;;;;;5080772;28;20050;-66
2021/01/17 12:24:12;;;;;;;16.65;2.45;;;7.40;99.90;;;;;;5074765;28;20067;-66
2021/01/17 12:26:39;;;;;;;18.70;3.60;;;7.50;99.90;;;;;;5082210;28;20087;-68
2021/01/17 12:29:05;;;;;;;24.88;3.10;;;7.40;99.90;;;;;;5076107;28;20488;-66
2021/01/17 12:31:31;;;;;;;9.55;2.28;;;7.50;99.90;;;;;;5072371;28;20021;-68
2021/01/17 12:33:58;;;;;;;20.15;2.58;;;7.50;99.90;;;;;;5078049;28;20028;-67
2021/01/17 12:36:25;;;;;;;14.57;3.47;;;7.50;99.90;;;;;;5076383;28;20504;-66
2021/01/17 12:38:52;;;;;;;13.88;2.30;;;7.60;99.90;;;;;;5073230;28;20023;-66
2021/01/17 12:41:21;;;;;;;20.13;3.90;;;7.60;99.90;;;;;;5069883;28;20142;-66
2021/01/17 12:43:47;;;;;;;16.52;2.60;;;7.70;99.90;;;;;;5067477;28;20116;-67
2021/01/17 12:46:14;;;;;;;17.17;2.47;;;7.80;99.90;;;;;;5067155;28;20115;-66
2021/01/17 12:48:39;;;;;;;26.15;3.30;;;7.90;99.90;;;;;;5073016;28;20098;-66
2021/01/17 12:51:07;;;;;;;14.80;2.85;;;8.00;99.90;;;;;;5069859;28;20025;-65
2021/01/17 12:53:34;;;;;;;15.85;2.08;;;8.00;99.90;;;;;;5070710;28;20562;-66
2021/01/17 12:56:00;;;;;;;18.15;3.53;;;8.00;99.90;;;;;;5069495;28;20078;-67